Sredny Vasjugan, Russia
Current Conditions -  °F | °C
As of 5:30 PM on Sunday 21 Dec 2014 (Local Time) from USNN Reporting Station
Clear Clear  
Wind Chill:   Ceiling: Unl
Heat Index: 14°   Visibility: 6mi
Dew Point: 10°   Wind: 7mph
Humidity: 86%   Direction: 160°SSE
Pressure: 29.8"   Gusts: NA
Location:  59.22°N, 78.23°E
Report Text: USNN 211030Z 16003MPS CAVOK M10/M12 Q1009 NOSIG RMK QFE75221420240
Loading
Personal Weather Stations






























Interactive Weather Map New forecast layout! Learn more

10-Day Weather Forecast

Advertisements
Track Severe Weather on mobile